Time;durP1;ratioP1;P1;durP2;ratioP2;P2;SDS_P1;SDS_P2;PMS_P1;PMS_P2;Temp;Humidity;BMP_temperature;BMP_pressure;BME280_temperature;BME280_humidity;BME280_pressure;Samples;Min_cycle;Max_cycle;Signal;HPM_P1;HPM_P2
2022/11/26 00:00:41;;;;;;;26.52;10.40;;;;;;;0.66;100.00;100053.78;5152780;27;20425;-46
2022/11/26 00:03:08;;;;;;;20.05;9.35;;;;;;;0.85;100.00;100021.59;5152780;27;20043;-46
2022/11/26 00:05:35;;;;;;;22.08;9.75;;;;;;;1.01;100.00;100026.91;5152690;27;20047;-46
2022/11/26 00:08:01;;;;;;;22.65;8.88;;;;;;;1.23;100.00;100019.16;5152608;27;20042;-49
2022/11/26 00:10:29;;;;;;;21.17;9.50;;;;;;;1.11;100.00;100029.53;5152579;27;20047;-46
2022/11/26 00:12:57;;;;;;;20.10;9.15;;;;;;;1.16;100.00;100038.38;5152694;27;20050;-45
2022/11/26 00:15:25;;;;;;;20.20;8.48;;;;;;;0.80;100.00;100062.13;5152471;27;20137;-49
2022/11/26 00:17:52;;;;;;;21.58;9.90;;;;;;;1.01;100.00;100057.41;5152479;27;20133;-46
2022/11/26 00:20:21;;;;;;;22.02;9.60;;;;;;;1.04;100.00;100053.34;5152494;27;20052;-49
2022/11/26 00:22:50;;;;;;;23.65;10.38;;;;;;;1.02;100.00;100064.41;5152306;27;20055;-47
2022/11/26 00:25:20;;;;;;;19.17;8.75;;;;;;;1.01;100.00;100062.81;5152274;27;20057;-47
2022/11/26 00:27:46;;;;;;;24.63;10.70;;;;;;;1.09;100.00;100064.09;5152307;27;20050;-45
2022/11/26 00:30:19;;;;;;;24.88;10.07;;;;;;;0.97;100.00;100055.53;5152353;27;20051;-45
2022/11/26 00:32:45;;;;;;;21.50;11.18;;;;;;;0.76;100.00;100066.44;5152450;27;20085;-46
2022/11/26 00:35:13;;;;;;;26.42;11.20;;;;;;;1.09;100.00;100059.50;5152658;27;20056;-46
2022/11/26 00:37:42;;;;;;;23.65;10.80;;;;;;;0.83;100.00;100061.53;5152249;27;20081;-47
2022/11/26 00:40:19;;;;;;;27.02;12.73;;;;;;;0.55;100.00;100062.22;5152412;27;20093;-46
2022/11/26 00:42:45;;;;;;;31.25;11.55;;;;;;;0.74;100.00;100060.53;5151923;27;20076;-46
2022/11/26 00:45:16;;;;;;;24.95;11.10;;;;;;;0.91;100.00;100047.47;5152086;27;20050;-47
2022/11/26 00:47:43;;;;;;;27.15;11.93;;;;;;;0.80;100.00;100058.59;5152042;27;20084;-47
2022/11/26 00:50:13;;;;;;;26.88;10.73;;;;;;;0.81;100.00;100063.72;5151856;27;20057;-47
2022/11/26 00:52:40;;;;;;;23.15;10.55;;;;;;;1.20;100.00;100057.56;5152082;27;20058;-46
2022/11/26 00:55:13;;;;;;;27.00;11.73;;;;;;;1.12;100.00;100077.03;5152024;27;20046;-46
2022/11/26 00:57:39;;;;;;;28.70;12.05;;;;;;;1.05;100.00;100087.34;5152214;27;20078;-45
2022/11/26 01:00:14;;;;;;;29.25;10.80;;;;;;;0.88;100.00;100076.91;5151922;27;20047;-46
2022/11/26 01:02:40;;;;;;;26.38;10.70;;;;;;;0.93;100.00;100068.78;5151873;27;20055;-46
2022/11/26 01:05:08;;;;;;;39.33;12.77;;;;;;;0.70;100.00;100062.19;5151892;27;20087;-47
2022/11/26 01:07:35;;;;;;;26.15;10.60;;;;;;;0.59;100.00;100050.59;5151764;27;20046;-46
2022/11/26 01:10:01;;;;;;;35.30;11.82;;;;;;;0.42;100.00;100039.34;5151677;27;20046;-46
2022/11/26 01:12:27;;;;;;;24.15;10.30;;;;;;;0.37;100.00;100033.97;5151704;27;20425;-46
2022/11/26 01:14:54;;;;;;;23.58;11.15;;;;;;;0.40;100.00;100026.16;5151632;27;20053;-46
2022/11/26 01:17:20;;;;;;;22.83;11.00;;;;;;;0.42;100.00;100012.38;5151633;27;20099;-45
2022/11/26 01:19:46;;;;;;;20.10;9.43;;;;;;;0.30;100.00;100003.78;5151813;27;20475;-47
2022/11/26 01:22:19;;;;;;;21.25;10.25;;;;;;;0.31;100.00;99997.31;5151634;27;20058;-45
2022/11/26 01:24:46;;;;;;;20.80;9.82;;;;;;;0.36;100.00;99979.19;5151722;27;20051;-46
2022/11/26 01:27:13;;;;;;;17.40;8.50;;;;;;;0.38;100.00;99985.16;5150860;27;20051;-46
2022/11/26 01:29:39;;;;;;;16.23;8.68;;;;;;;0.14;100.00;99993.06;5151684;27;20386;-49
2022/11/26 01:32:05;;;;;;;12.95;7.28;;;;;;;0.19;100.00;99987.66;5151352;27;20620;-46
2022/11/26 01:34:32;;;;;;;21.48;8.02;;;;;;;0.20;100.00;99983.88;5151403;27;20054;-47
2022/11/26 01:36:58;;;;;;;15.68;7.28;;;;;;;0.31;100.00;99973.84;5151375;27;20054;-46
2022/11/26 01:39:25;;;;;;;13.32;6.93;;;;;;;0.36;100.00;99987.31;5151495;27;20065;-48
2022/11/26 01:41:56;;;;;;;12.27;7.35;;;;;;;0.68;100.00;99988.75;5151201;27;20550;-46
2022/11/26 01:44:25;;;;;;;11.93;6.60;;;;;;;0.60;100.00;99998.25;5151209;27;20153;-45
2022/11/26 01:46:52;;;;;;;12.98;7.03;;;;;;;0.36;100.00;100026.94;5151200;27;20096;-46
2022/11/26 01:49:21;;;;;;;13.15;7.55;;;;;;;0.57;100.00;100036.59;5151278;27;20130;-46
2022/11/26 01:51:51;;;;;;;12.15;6.43;;;;;;;0.36;100.00;100056.63;5151402;27;20062;-46
2022/11/26 01:54:18;;;;;;;10.20;6.18;;;;;;;0.64;100.00;100052.47;5151364;27;20137;-45
2022/11/26 01:56:48;;;;;;;11.30;6.22;;;;;;;0.52;100.00;100071.69;5151301;27;20442;-45
2022/11/26 01:59:21;;;;;;;9.90;5.72;;;;;;;0.49;100.00;100085.72;5151225;27;20047;-47
2022/11/26 02:01:48;;;;;;;9.90;5.65;;;;;;;0.50;100.00;100103.53;5151226;27;20534;-45
2022/11/26 02:04:18;;;;;;;9.90;6.07;;;;;;;0.53;100.00;100112.94;5151028;27;20054;-46
2022/11/26 02:06:47;;;;;;;15.85;5.90;;;;;;;0.57;100.00;100116.75;5151013;27;20138;-45
2022/11/26 02:09:13;;;;;;;11.27;5.18;;;;;;;0.69;100.00;100128.00;5151083;27;20086;-47
2022/11/26 02:11:40;;;;;;;10.57;5.68;;;;;;;0.67;100.00;100133.69;5150923;27;20046;-45
2022/11/26 02:14:12;;;;;;;11.15;5.63;;;;;;;0.71;100.00;100144.75;5150915;27;20135;-46
2022/11/26 02:17:00;;;;;;;13.20;5.75;;;;;;;0.49;100.00;100142.38;5150899;27;20091;-46
2022/11/26 02:20:09;;;;;;;11.50;5.35;;;;;;;0.50;100.00;100137.78;5150752;27;20134;-47
2022/11/26 02:23:06;;;;;;;7.78;5.32;;;;;;;0.62;100.00;100132.91;5150593;27;20569;-45
2022/11/26 02:25:55;;;;;;;8.80;5.57;;;;;;;0.14;100.00;100145.97;5140685;27;20138;-46
2022/11/26 02:28:57;;;;;;;9.13;4.72;;;;;;;0.27;100.00;100136.47;5148230;27;20134;-46
2022/11/26 02:31:33;;;;;;;9.32;5.35;;;;;;;-0.05;100.00;100129.53;5150724;27;20103;-46
2022/11/26 02:34:10;;;;;;;9.25;5.35;;;;;;;0.32;100.00;100123.00;5150604;27;20424;-46
2022/11/26 02:36:42;;;;;;;10.18;5.88;;;;;;;0.13;100.00;100136.25;5150601;27;20129;-46
2022/11/26 02:39:13;;;;;;;7.90;4.85;;;;;;;0.33;100.00;100130.81;5153033;27;20148;-46
2022/11/26 02:41:44;;;;;;;8.35;5.40;;;;;;;0.29;100.00;100147.81;5154039;27;20157;-45
2022/11/26 02:44:12;;;;;;;11.07;6.25;;;;;;;0.54;100.00;100145.06;5154005;27;20133;-46
2022/11/26 02:46:41;;;;;;;10.27;6.00;;;;;;;0.30;100.00;100160.22;5154310;27;20105;-47
2022/11/26 02:49:09;;;;;;;11.48;6.43;;;;;;;0.28;100.00;100165.09;5153881;27;20061;-51
2022/11/26 02:51:35;;;;;;;10.43;6.05;;;;;;;0.14;100.00;100162.16;5153800;27;20133;-46
2022/11/26 02:54:02;;;;;;;12.77;6.75;;;;;;;0.16;100.00;100162.66;5154028;27;20051;-47
2022/11/26 02:56:29;;;;;;;11.90;7.20;;;;;;;0.12;100.00;100167.78;5153941;27;20057;-46
2022/11/26 02:58:56;;;;;;;13.35;8.27;;;;;;;-0.01;100.00;100179.13;5153769;27;20175;-46
2022/11/26 03:01:28;;;;;;;11.82;7.13;;;;;;;0.23;100.00;100179.38;5153643;27;20095;-46
2022/11/26 03:03:58;;;;;;;10.73;6.60;;;;;;;-0.04;100.00;100199.34;5153823;27;20469;-45
2022/11/26 03:06:26;;;;;;;11.88;6.85;;;;;;;0.09;100.00;100194.50;5153943;27;20119;-46
2022/11/26 03:08:53;;;;;;;12.07;7.03;;;;;;;-0.31;100.00;100193.38;5153849;27;20043;-46
2022/11/26 03:11:20;;;;;;;11.30;5.97;;;;;;;0.09;100.00;100189.09;5153818;27;20077;-47
2022/11/26 03:13:47;;;;;;;16.70;8.40;;;;;;;0.30;100.00;100190.72;5153766;27;20580;-48
2022/11/26 03:16:13;;;;;;;13.73;7.55;;;;;;;-0.02;100.00;100201.78;5153882;27;20391;-46
2022/11/26 03:18:39;;;;;;;14.35;7.95;;;;;;;0.06;100.00;100208.50;5154050;27;20572;-46
2022/11/26 03:21:07;;;;;;;15.30;7.70;;;;;;;0.03;100.00;100203.66;5153651;27;20047;-46
2022/11/26 03:23:33;;;;;;;11.40;7.00;;;;;;;0.33;100.00;100200.94;5153795;27;20154;-46
2022/11/26 03:25:59;;;;;;;11.27;7.22;;;;;;;0.30;100.00;100204.19;5153558;27;20090;-46
2022/11/26 03:28:26;;;;;;;12.98;8.52;;;;;;;0.29;100.00;100210.66;5153316;27;20051;-46
2022/11/26 03:30:53;;;;;;;10.95;6.55;;;;;;;0.02;100.00;100219.03;5153334;27;20106;-45
2022/11/26 03:33:19;;;;;;;13.70;7.45;;;;;;;-0.02;100.00;100220.66;5153440;27;20050;-47
2022/11/26 03:35:47;;;;;;;14.63;8.20;;;;;;;0.19;100.00;100214.16;5153211;27;20050;-46
2022/11/26 03:38:15;;;;;;;18.10;9.25;;;;;;;0.13;100.00;100223.31;5153090;27;20046;-47
2022/11/26 03:40:41;;;;;;;14.18;7.13;;;;;;;0.09;100.00;100226.84;5153095;27;20475;-47
2022/11/26 03:43:07;;;;;;;14.35;7.97;;;;;;;0.28;100.00;100227.94;5153041;27;20504;-47
2022/11/26 03:45:34;;;;;;;19.20;8.20;;;;;;;0.35;100.00;100231.16;5153359;27;20049;-46
2022/11/26 03:48:00;;;;;;;13.30;8.25;;;;;;;0.43;100.00;100237.88;5152873;27;20086;-49
2022/11/26 03:50:26;;;;;;;12.65;7.95;;;;;;;0.19;100.00;100226.84;5152545;27;20091;-46
2022/11/26 03:52:52;;;;;;;15.30;8.32;;;;;;;0.13;100.00;100231.41;5152875;27;20091;-46
2022/11/26 03:55:19;;;;;;;16.42;8.43;;;;;;;0.28;100.00;100230.63;5152894;27;20046;-46
2022/11/26 03:57:46;;;;;;;17.25;9.00;;;;;;;0.33;100.00;100238.69;5152697;27;20046;-45
2022/11/26 04:00:13;;;;;;;14.18;8.20;;;;;;;-0.21;100.00;100224.94;5152855;27;20138;-46
2022/11/26 04:02:39;;;;;;;17.00;8.32;;;;;;;0.21;100.00;100230.91;5152746;27;20058;-46
2022/11/26 04:05:06;;;;;;;16.05;8.05;;;;;;;0.22;100.00;100229.00;5152726;27;20452;-47
2022/11/26 04:07:33;;;;;;;13.30;7.72;;;;;;;0.21;100.00;100232.78;5152544;27;20068;-49
2022/11/26 04:09:59;;;;;;;14.77;8.02;;;;;;;0.05;100.00;100234.66;5152739;27;20138;-46
2022/11/26 04:12:26;;;;;;;17.73;9.35;;;;;;;-0.26;100.00;100241.91;5152951;27;20047;-50
2022/11/26 04:14:52;;;;;;;15.20;8.50;;;;;;;0.21;100.00;100246.28;5152350;27;20466;-46
2022/11/26 04:17:18;;;;;;;16.55;8.85;;;;;;;0.24;100.00;100243.03;5152648;27;20054;-48
2022/11/26 04:19:45;;;;;;;14.98;7.90;;;;;;;0.10;100.00;100247.31;5152598;27;20161;-46
2022/11/26 04:22:11;;;;;;;16.20;8.20;;;;;;;0.12;100.00;100245.19;5152359;27;20050;-48
2022/11/26 04:24:37;;;;;;;14.00;7.85;;;;;;;0.14;100.00;100246.53;5152477;27;20133;-46
2022/11/26 04:27:04;;;;;;;17.40;8.45;;;;;;;-0.05;100.00;100248.94;5152468;27;20074;-45
2022/11/26 04:29:31;;;;;;;11.50;7.28;;;;;;;-0.07;100.00;100244.88;5152322;27;20046;-46
2022/11/26 04:31:57;;;;;;;17.88;8.75;;;;;;;-0.58;100.00;100247.47;5152275;27;20059;-46
2022/11/26 04:34:23;;;;;;;14.57;7.45;;;;;;;-0.40;100.00;100247.00;5152248;27;20050;-46
2022/11/26 04:36:50;;;;;;;13.45;7.43;;;;;;;-0.03;100.00;100248.69;5152305;27;20470;-47
2022/11/26 04:39:16;;;;;;;14.07;7.80;;;;;;;-0.22;100.00;100251.06;5152561;27;20075;-46
2022/11/26 04:41:42;;;;;;;18.33;8.52;;;;;;;0.03;100.00;100246.78;5151997;27;20187;-46
2022/11/26 04:44:08;;;;;;;14.70;7.78;;;;;;;-0.15;100.00;100250.81;5152348;27;20138;-47
2022/11/26 04:46:35;;;;;;;20.75;8.82;;;;;;;0.19;100.00;100257.31;5152014;27;20053;-47
2022/11/26 04:49:02;;;;;;;18.05;9.48;;;;;;;0.32;100.00;100264.06;5152034;27;20107;-45
2022/11/26 04:51:28;;;;;;;18.00;9.57;;;;;;;0.33;100.00;100259.47;5152018;27;20133;-46
2022/11/26 04:53:55;;;;;;;16.40;9.05;;;;;;;0.15;100.00;100258.13;5151822;27;20043;-46
2022/11/26 04:56:21;;;;;;;15.82;8.73;;;;;;;0.16;100.00;100257.84;5151975;27;20185;-45
2022/11/26 04:58:47;;;;;;;18.35;9.50;;;;;;;0.24;100.00;100256.53;5152117;27;20057;-46
2022/11/26 05:01:13;;;;;;;15.68;8.70;;;;;;;0.29;100.00;100258.41;5151274;27;20046;-46
2022/11/26 05:03:41;;;;;;;17.85;9.07;;;;;;;0.14;100.00;100261.91;5152026;27;20496;-47
2022/11/26 05:06:07;;;;;;;17.48;9.52;;;;;;;0.27;100.00;100266.78;5152335;27;20050;-46
2022/11/26 05:08:34;;;;;;;19.52;9.60;;;;;;;0.35;100.00;100263.53;5151812;27;20553;-46
2022/11/26 05:11:02;;;;;;;22.00;10.02;;;;;;;0.03;100.00;100252.97;5152173;27;20046;-47
2022/11/26 05:13:28;;;;;;;19.77;10.40;;;;;;;-0.21;100.00;100254.56;5151923;27;20549;-49
2022/11/26 05:15:55;;;;;;;21.98;10.20;;;;;;;0.05;100.00;100256.22;5151826;27;20047;-48
2022/11/26 05:18:21;;;;;;;14.95;9.18;;;;;;;-0.09;100.00;100255.94;5151847;27;20081;-46
2022/11/26 05:20:48;;;;;;;19.65;10.15;;;;;;;-0.38;100.00;100265.59;5151732;27;20530;-47
2022/11/26 05:23:15;;;;;;;19.63;10.60;;;;;;;-0.03;100.00;100268.38;5151649;27;20450;-50
2022/11/26 05:25:41;;;;;;;18.60;10.07;;;;;;;-0.62;100.00;100263.34;5151714;27;20051;-48
2022/11/26 05:28:07;;;;;;;19.25;9.65;;;;;;;-0.32;100.00;100270.72;5151278;27;20061;-46
2022/11/26 05:30:34;;;;;;;21.27;10.38;;;;;;;-0.32;100.00;100275.31;5151482;27;20142;-47
2022/11/26 05:33:00;;;;;;;23.77;10.90;;;;;;;-0.22;100.00;100267.25;5151262;27;20057;-46
2022/11/26 05:35:27;;;;;;;25.15;11.23;;;;;;;-0.40;100.00;100273.09;5151456;27;20129;-45
2022/11/26 05:37:53;;;;;;;20.92;11.13;;;;;;;-0.37;100.00;100276.09;5151703;27;20062;-47
2022/11/26 05:40:20;;;;;;;21.92;11.45;;;;;;;-0.15;100.00;100278.56;5151178;27;20049;-47
2022/11/26 05:42:46;;;;;;;19.92;9.73;;;;;;;-0.34;100.00;100280.94;5151427;27;20053;-50
2022/11/26 05:45:12;;;;;;;18.35;10.32;;;;;;;-0.50;100.00;100271.19;5151349;27;20043;-47
2022/11/26 05:47:38;;;;;;;22.65;11.05;;;;;;;-0.20;100.00;100275.06;5151285;27;20102;-47
2022/11/26 05:50:06;;;;;;;23.40;10.90;;;;;;;-0.15;100.00;100280.47;5151137;27;20405;-47
2022/11/26 05:52:32;;;;;;;20.73;10.77;;;;;;;-0.40;100.00;100275.81;5151189;27;20486;-48
2022/11/26 05:55:00;;;;;;;17.70;9.75;;;;;;;-0.24;100.00;100277.47;5151086;27;20137;-46
2022/11/26 05:57:26;;;;;;;22.02;10.88;;;;;;;-0.26;100.00;100276.94;5151258;27;20452;-47
2022/11/26 05:59:52;;;;;;;22.20;10.85;;;;;;;-0.51;100.00;100277.66;5151158;27;20532;-48
2022/11/26 06:02:18;;;;;;;20.35;11.07;;;;;;;-0.82;100.00;100284.81;5150786;27;20057;-46
2022/11/26 06:04:45;;;;;;;21.00;11.02;;;;;;;-0.61;100.00;100277.63;5150918;27;20055;-46
2022/11/26 06:07:11;;;;;;;23.52;10.95;;;;;;;-0.66;100.00;100291.88;5150908;27;20046;-46
2022/11/26 06:09:37;;;;;;;23.38;11.05;;;;;;;-0.35;100.00;100281.22;5151245;27;20062;-45
2022/11/26 06:12:05;;;;;;;21.73;11.30;;;;;;;-0.47;100.00;100284.13;5151618;27;20057;-46
2022/11/26 06:14:31;;;;;;;23.95;11.52;;;;;;;-0.34;100.00;100288.22;5154553;27;20058;-46
2022/11/26 06:16:57;;;;;;;24.13;11.30;;;;;;;-0.37;100.00;100288.75;5154455;27;20061;-46
2022/11/26 06:19:24;;;;;;;23.50;10.65;;;;;;;-0.22;100.00;100288.81;5154414;27;20057;-46
2022/11/26 06:21:50;;;;;;;21.73;11.13;;;;;;;-0.38;100.00;100289.84;5154308;27;20046;-45
2022/11/26 06:24:16;;;;;;;25.08;11.52;;;;;;;-0.10;100.00;100285.84;5154382;27;20134;-47
2022/11/26 06:26:43;;;;;;;20.10;10.85;;;;;;;0.02;100.00;100278.34;5154442;27;20483;-47
2022/11/26 06:29:10;;;;;;;19.40;9.93;;;;;;;-0.03;100.00;100289.94;5154211;27;20523;-46
2022/11/26 06:31:36;;;;;;;22.40;10.80;;;;;;;-0.06;100.00;100282.38;5154584;27;20080;-46
2022/11/26 06:34:02;;;;;;;19.63;10.05;;;;;;;0.08;100.00;100279.16;5154124;27;20133;-46
2022/11/26 06:36:28;;;;;;;27.42;11.60;;;;;;;-0.23;100.00;100271.03;5154534;27;20134;-47
2022/11/26 06:38:55;;;;;;;20.98;11.18;;;;;;;0.09;100.00;100278.88;5154012;27;20498;-47
2022/11/26 06:41:21;;;;;;;22.88;10.15;;;;;;;0.20;100.00;100277.00;5154102;27;20101;-46
2022/11/26 06:43:47;;;;;;;26.13;11.95;;;;;;;0.02;100.00;100262.16;5154219;27;20050;-47
2022/11/26 06:46:14;;;;;;;24.60;12.07;;;;;;;-0.09;100.00;100264.03;5154196;27;20051;-48
2022/11/26 06:48:41;;;;;;;28.48;12.88;;;;;;;0.15;100.00;100269.72;5154177;27;20057;-47
2022/11/26 06:51:09;;;;;;;25.25;10.80;;;;;;;-0.02;100.00;100263.78;5154099;27;20110;-47
2022/11/26 06:53:35;;;;;;;21.98;11.45;;;;;;;0.03;100.00;100261.06;5154053;27;20057;-46
2022/11/26 06:56:03;;;;;;;19.15;10.35;;;;;;;-0.25;100.00;100247.03;5154120;27;20047;-47
2022/11/26 06:58:30;;;;;;;21.80;10.60;;;;;;;0.06;100.00;100254.34;5154155;27;20053;-47
2022/11/26 07:00:56;;;;;;;22.63;10.80;;;;;;;0.07;100.00;100247.88;5153860;27;20532;-47
2022/11/26 07:03:24;;;;;;;25.10;11.05;;;;;;;0.04;100.00;100240.34;5154410;27;20110;-46
2022/11/26 07:05:51;;;;;;;26.30;11.13;;;;;;;0.16;100.00;100255.16;5153744;27;20082;-46
2022/11/26 07:08:17;;;;;;;23.90;11.52;;;;;;;0.26;100.00;100246.25;5154165;27;20089;-48
2022/11/26 07:10:43;;;;;;;26.83;11.48;;;;;;;-0.21;100.00;100222.22;5153887;27;20503;-47
2022/11/26 07:13:10;;;;;;;26.27;11.63;;;;;;;-0.03;100.00;100240.59;5154320;27;20210;-47
2022/11/26 07:15:36;;;;;;;22.23;10.88;;;;;;;-0.03;100.00;100252.19;5154003;27;20513;-47
2022/11/26 07:18:02;;;;;;;21.20;10.40;;;;;;;0.07;100.00;100242.47;5153765;27;20068;-47
2022/11/26 07:20:29;;;;;;;27.80;11.25;;;;;;;0.11;100.00;100238.97;5153485;27;20053;-47
2022/11/26 07:22:56;;;;;;;20.23;10.15;;;;;;;-0.08;100.00;100232.50;5153280;27;20051;-48
2022/11/26 07:25:22;;;;;;;21.30;11.45;;;;;;;0.01;100.00;100238.97;5152568;27;20573;-48
2022/11/26 07:27:48;;;;;;;31.38;10.68;;;;;;;-0.03;100.00;100219.84;5153291;27;20072;-47
2022/11/26 07:30:15;;;;;;;28.15;10.18;;;;;;;0.24;100.00;100243.03;5153597;27;20053;-47
2022/11/26 07:32:41;;;;;;;21.17;11.38;;;;;;;0.01;100.00;100209.31;5153300;27;20544;-46
2022/11/26 07:35:08;;;;;;;20.00;10.30;;;;;;;0.03;100.00;100217.13;5153462;27;20127;-47
2022/11/26 07:37:35;;;;;;;21.17;10.25;;;;;;;0.02;100.00;100202.84;5153143;27;20050;-47
2022/11/26 07:40:01;;;;;;;22.75;10.95;;;;;;;-0.07;100.00;100191.81;5153159;27;20046;-49
2022/11/26 07:42:29;;;;;;;21.75;11.05;;;;;;;0.30;100.00;100190.72;5153031;27;20107;-50
2022/11/26 07:44:56;;;;;;;21.40;10.82;;;;;;;0.25;100.00;100168.31;5153038;27;20046;-49
2022/11/26 07:47:22;;;;;;;24.63;10.75;;;;;;;0.37;100.00;100131.09;5152942;27;20042;-49
2022/11/26 07:49:48;;;;;;;21.92;10.32;;;;;;;-0.02;100.00;100107.41;5152997;27;20047;-47
2022/11/26 07:52:15;;;;;;;20.90;10.32;;;;;;;0.18;100.00;100120.06;5152896;27;20061;-49
2022/11/26 07:54:42;;;;;;;27.42;11.32;;;;;;;0.07;100.00;100118.44;5152779;27;20047;-50
2022/11/26 07:57:09;;;;;;;26.00;11.05;;;;;;;0.26;100.00;100132.97;5153313;27;20046;-50
2022/11/26 07:59:35;;;;;;;22.73;11.45;;;;;;;-0.20;100.00;100095.31;5152829;27;20046;-47
2022/11/26 08:02:02;;;;;;;19.95;10.88;;;;;;;0.02;100.00;100118.47;5152917;27;20057;-47
2022/11/26 08:04:28;;;;;;;21.58;10.40;;;;;;;0.25;100.00;100120.59;5152591;27;20047;-48
2022/11/26 08:06:54;;;;;;;24.13;10.90;;;;;;;0.14;100.00;100102.81;5152865;27;20057;-47
2022/11/26 08:09:20;;;;;;;21.55;10.68;;;;;;;0.12;100.00;100099.56;5152652;27;20050;-47
2022/11/26 08:11:47;;;;;;;23.73;10.48;;;;;;;0.36;100.00;100081.72;5152507;27;20648;-49
2022/11/26 08:14:14;;;;;;;22.50;11.07;;;;;;;0.30;100.00;100042.38;5152568;27;20079;-47
2022/11/26 08:16:40;;;;;;;21.38;10.38;;;;;;;0.59;100.00;100029.00;5152651;27;20078;-48
2022/11/26 08:19:10;;;;;;;19.35;10.90;;;;;;;0.67;100.00;99984.47;5152668;27;20042;-48
2022/11/26 08:21:37;;;;;;;28.17;10.82;;;;;;;0.69;100.00;99977.69;5152403;27;20057;-51
2022/11/26 08:24:04;;;;;;;23.40;11.40;;;;;;;0.88;100.00;99941.94;5152680;27;20050;-48
2022/11/26 08:26:30;;;;;;;22.80;10.85;;;;;;;0.65;100.00;99892.97;5152240;27;20049;-48
2022/11/26 08:28:58;;;;;;;21.50;10.52;;;;;;;0.45;100.00;99869.66;5152723;27;20046;-49
2022/11/26 08:31:26;;;;;;;18.95;10.38;;;;;;;0.69;100.00;99920.19;5152506;27;20420;-46
2022/11/26 08:33:55;;;;;;;18.70;9.35;;;;;;;0.66;100.00;99888.38;5152419;27;20143;-48
2022/11/26 08:36:21;;;;;;;18.13;10.13;;;;;;;0.18;100.00;99828.84;5150874;27;20421;-47
2022/11/26 08:38:47;;;;;;;23.35;10.13;;;;;;;0.71;100.00;99847.88;5152241;27;20054;-49
2022/11/26 08:41:14;;;;;;;21.88;11.10;;;;;;;0.84;100.00;99832.91;5152218;27;20395;-47
2022/11/26 08:43:40;;;;;;;18.85;9.50;;;;;;;0.82;100.00;99773.00;5152071;27;20504;-47
2022/11/26 08:46:09;;;;;;;20.65;9.90;;;;;;;0.42;100.00;99692.16;5151994;27;20094;-47
2022/11/26 08:48:35;;;;;;;19.83;9.65;;;;;;;0.97;100.00;99736.94;5151791;27;20532;-47
2022/11/26 08:51:04;;;;;;;32.47;11.18;;;;;;;0.76;100.00;99693.97;5152317;27;20153;-46
2022/11/26 08:53:33;;;;;;;20.83;10.30;;;;;;;0.80;100.00;99735.53;5151744;27;20054;-47
2022/11/26 08:56:00;;;;;;;25.98;10.40;;;;;;;0.73;100.00;99718.84;5152204;27;20142;-48
2022/11/26 08:58:26;;;;;;;38.88;11.43;;;;;;;0.74;100.00;99731.25;5151756;27;20051;-47
2022/11/26 09:00:53;;;;;;;50.03;12.05;;;;;;;0.78;100.00;99793.56;5151908;27;20053;-48
2022/11/26 09:03:20;;;;;;;28.35;11.32;;;;;;;0.87;100.00;99816.16;5151636;27;20098;-47
2022/11/26 09:05:46;;;;;;;22.17;10.98;;;;;;;0.50;100.00;99790.59;5151612;27;20089;-47
2022/11/26 09:08:12;;;;;;;24.73;10.82;;;;;;;0.46;100.00;99838.88;5151868;27;20084;-48
2022/11/26 09:10:38;;;;;;;23.17;10.80;;;;;;;0.68;100.00;99897.81;5151749;27;20102;-48
2022/11/26 09:13:05;;;;;;;25.52;9.82;;;;;;;0.60;100.00;99921.88;5151726;27;20482;-49
2022/11/26 09:15:31;;;;;;;37.92;10.50;;;;;;;0.75;100.00;99953.38;5151712;27;20051;-48
2022/11/26 09:17:57;;;;;;;22.83;10.70;;;;;;;0.45;100.00;99910.09;5151994;27;20047;-48
2022/11/26 09:20:24;;;;;;;22.67;10.35;;;;;;;0.44;100.00;99940.88;5151636;27;20046;-47
2022/11/26 09:22:50;;;;;;;22.17;11.32;;;;;;;0.61;100.00;99937.00;5151709;27;20051;-47
2022/11/26 09:25:17;;;;;;;23.30;10.18;;;;;;;0.39;100.00;99919.31;5151526;27;20581;-48
2022/11/26 09:27:43;;;;;;;22.08;10.38;;;;;;;0.28;100.00;99936.66;5151711;27;20050;-48
2022/11/26 09:30:11;;;;;;;26.65;10.15;;;;;;;0.01;100.00;99990.97;5151522;27;20078;-48
2022/11/26 09:32:37;;;;;;;28.52;10.30;;;;;;;0.37;100.00;100042.88;5151376;27;20463;-48
2022/11/26 09:35:04;;;;;;;21.73;10.27;;;;;;;0.44;100.00;100029.09;5151374;27;20054;-47
2022/11/26 09:37:31;;;;;;;24.67;10.60;;;;;;;0.20;100.00;100018.09;5151260;27;20046;-47
2022/11/26 09:39:58;;;;;;;22.42;9.98;;;;;;;0.16;100.00;100023.25;5151312;27;20097;-49
2022/11/26 09:42:35;;;;;;;22.55;10.20;;;;;;;0.26;100.00;100038.59;5151139;27;20046;-46
2022/11/26 09:45:10;;;;;;;25.83;11.52;;;;;;;0.12;100.00;100010.59;5151205;27;20569;-49
2022/11/26 09:47:39;;;;;;;23.42;10.10;;;;;;;0.18;100.00;100042.66;5152656;27;20135;-48
2022/11/26 09:50:22;;;;;;;19.70;9.73;;;;;;;0.37;100.00;100061.75;5155185;27;20417;-47
2022/11/26 09:52:53;;;;;;;19.67;9.98;;;;;;;0.59;100.00;100050.59;5155067;27;20059;-47
2022/11/26 09:55:23;;;;;;;23.83;9.73;;;;;;;0.18;100.00;99996.81;5154749;27;20043;-48
2022/11/26 09:57:58;;;;;;;25.42;9.20;;;;;;;0.64;100.00;100039.00;5155079;27;20046;-48
2022/11/26 10:00:27;;;;;;;21.38;9.82;;;;;;;0.66;100.00;99983.63;5154875;27;20054;-51
2022/11/26 10:02:55;;;;;;;27.92;10.40;;;;;;;0.05;100.00;99924.63;5154974;27;20055;-48
2022/11/26 10:05:26;;;;;;;30.23;10.68;;;;;;;0.05;100.00;99983.13;5154967;27;20047;-50
2022/11/26 10:08:07;;;;;;;24.42;9.23;;;;;;;0.59;100.00;100042.50;5154673;27;20078;-49
2022/11/26 10:10:46;;;;;;;18.83;9.68;;;;;;;0.82;100.00;100008.66;5154414;27;20066;-49
2022/11/26 10:13:21;;;;;;;25.85;11.00;;;;;;;0.84;100.00;99954.41;5154784;27;20051;-50
2022/11/26 10:16:02;;;;;;;31.40;9.73;;;;;;;0.81;100.00;99926.06;5154609;27;20153;-48
2022/11/26 10:18:37;;;;;;;18.52;8.65;;;;;;;0.64;100.00;99871.69;5154365;27;20078;-51
2022/11/26 10:21:23;;;;;;;20.88;10.32;;;;;;;0.80;100.00;99842.66;5154712;27;20046;-50
2022/11/26 10:23:56;;;;;;;23.05;9.40;;;;;;;0.72;100.00;99830.59;5154297;27;20058;-48
2022/11/26 10:26:28;;;;;;;16.03;8.30;;;;;;;0.74;100.00;99836.50;5154789;27;20055;-49
2022/11/26 10:29:05;;;;;;;17.30;8.98;;;;;;;0.67;100.00;99823.34;5154337;27;20141;-50
2022/11/26 10:31:33;;;;;;;19.90;8.25;;;;;;;0.49;100.00;99815.94;5154293;27;20042;-48
2022/11/26 10:34:02;;;;;;;19.23;9.30;;;;;;;0.72;100.00;99824.38;5154281;27;20538;-48
2022/11/26 10:36:35;;;;;;;20.27;8.88;;;;;;;0.44;100.00;99811.38;5154200;27;20058;-47
2022/11/26 10:39:03;;;;;;;23.20;9.23;;;;;;;0.79;100.00;99844.56;5154310;27;20100;-49
2022/11/26 10:41:33;;;;;;;19.35;8.95;;;;;;;0.48;100.00;99822.41;5153968;27;20520;-48
2022/11/26 10:44:34;;;;;;;18.85;8.65;;;;;;;0.62;100.00;99890.03;5154307;27;20162;-47
2022/11/26 10:47:20;;;;;;;17.50;8.85;;;;;;;0.70;100.00;99879.47;5154249;27;20046;-47
2022/11/26 10:49:47;;;;;;;15.27;8.48;;;;;;;0.40;100.00;99769.88;5154112;27;20059;-48
2022/11/26 10:52:16;;;;;;;22.88;9.32;;;;;;;0.87;100.00;99803.47;5154122;27;20062;-47
2022/11/26 10:54:44;;;;;;;19.45;8.90;;;;;;;0.06;100.00;99766.38;5154260;27;20453;-48
2022/11/26 10:57:16;;;;;;;20.00;9.55;;;;;;;0.68;100.00;99824.16;5154405;27;20222;-51
2022/11/26 10:59:50;;;;;;;14.93;8.68;;;;;;;0.83;100.00;99842.88;5152568;27;20046;-48
2022/11/26 11:02:32;;;;;;;18.25;9.93;;;;;;;0.38;100.00;99785.53;5153760;27;20425;-47
2022/11/26 11:05:02;;;;;;;23.40;9.95;;;;;;;0.60;100.00;99828.25;5153669;27;20141;-47
2022/11/26 11:07:40;;;;;;;18.48;9.32;;;;;;;0.68;100.00;99791.75;5153468;27;20046;-51
2022/11/26 11:10:15;;;;;;;20.75;10.82;;;;;;;0.68;100.00;99783.66;5154174;27;20050;-47
2022/11/26 11:12:45;;;;;;;19.27;10.10;;;;;;;0.78;100.00;99799.75;5153279;27;20051;-48
2022/11/26 11:15:19;;;;;;;20.10;9.77;;;;;;;0.35;100.00;99831.16;5153536;27;20054;-47
2022/11/26 11:17:52;;;;;;;21.80;10.93;;;;;;;0.41;100.00;99862.41;5153003;27;20103;-51
2022/11/26 11:20:27;;;;;;;23.70;10.93;;;;;;;0.27;100.00;99891.91;5153560;27;20429;-48